Time;durP1;ratioP1;P1;durP2;ratioP2;P2;SDS_P1;SDS_P2;PMS_P1;PMS_P2;Temp;Humidity;BMP_temperature;BMP_pressure;BME280_temperature;BME280_humidity;BME280_pressure;Samples;Min_cycle;Max_cycle;Signal;HPM_P1;HPM_P2
2022/05/29 00:00:11;;;;;;;;;;;;;;;9.92;66.75;101777.38;5065611;28;19920;-58
2022/05/29 00:02:36;;;;;;;;;;;;;;;9.93;65.42;101775.59;5069425;28;19920;-57
2022/05/29 00:05:02;;;;;;;;;;;;;;;9.95;66.42;101771.84;5070486;28;19924;-57
2022/05/29 00:07:27;;;;;;;;;;;;;;;9.94;65.71;101775.47;5070192;28;20011;-58
2022/05/29 00:09:52;;;;;;;;;;;;;;;9.94;65.84;101766.66;5071557;28;19924;-58
2022/05/29 00:12:18;;;;;;;;;;;;;;;9.92;66.88;101769.44;5073737;28;19927;-57
2022/05/29 00:14:44;;;;;;;;;;;;;;;9.86;66.08;101766.50;5070141;28;20378;-57
2022/05/29 00:17:10;;;;;;;;;;;;;;;9.80;66.55;101768.72;5069748;28;19924;-57
2022/05/29 00:19:35;;;;;;;;;;;;;;;9.78;66.02;101762.69;5079650;28;19920;-58
2022/05/29 00:22:01;;;;;;;;;;;;;;;9.75;66.54;101762.97;5070316;28;19959;-57
2022/05/29 00:24:26;;;;;;;;;;;;;;;9.70;66.63;101765.19;5069883;28;19924;-57
2022/05/29 00:26:52;;;;;;;;;;;;;;;9.67;67.00;101765.47;5067302;28;20008;-58
2022/05/29 00:29:17;;;;;;;;;;;;;;;9.64;66.84;101760.41;5069653;28;19925;-57
2022/05/29 00:31:42;;;;;;;;;;;;;;;9.57;66.77;101759.25;5063159;28;19924;-57
2022/05/29 00:34:09;;;;;;;;;;;;;;;9.52;67.07;101755.19;5075080;28;21206;-57
2022/05/29 00:36:40;;;;;;;;;;;;;;;9.48;66.67;101751.13;5077818;28;20362;-58
2022/05/29 00:39:07;;;;;;;;;;;;;;;9.48;67.46;101755.59;5069709;28;19927;-58
2022/05/29 00:41:33;;;;;;;;;;;;;;;9.46;66.95;101753.06;5067254;28;19963;-57
2022/05/29 00:44:11;;;;;;;;;;;;;;;9.40;66.97;101748.31;5070736;28;19928;-58
2022/05/29 00:46:36;;;;;;;;;;;;;;;9.39;67.02;101741.34;5074217;28;20343;-57
2022/05/29 00:49:08;;;;;;;;;;;;;;;9.35;67.19;101740.78;5075444;28;20011;-57
2022/05/29 00:51:38;;;;;;;;;;;;;;;9.33;67.76;101737.38;5071317;28;19920;-57
2022/05/29 00:54:05;;;;;;;;;;;;;;;9.31;67.57;101733.22;5071065;28;19924;-58
2022/05/29 00:56:31;;;;;;;;;;;;;;;9.33;67.66;101728.63;5074761;28;19936;-57
2022/05/29 00:58:57;;;;;;;;;;;;;;;9.33;67.42;101731.28;5073276;28;19928;-58
2022/05/29 01:01:23;;;;;;;;;;;;;;;9.32;66.75;101724.31;5073368;28;19920;-57
2022/05/29 01:03:48;;;;;;;;;;;;;;;9.33;67.54;101726.81;5053419;28;19966;-57
2022/05/29 01:06:14;;;;;;;;;;;;;;;9.34;67.76;101727.66;5065833;28;19925;-57
2022/05/29 01:08:39;;;;;;;;;;;;;;;9.32;67.26;101725.13;5072088;28;19920;-58
2022/05/29 01:11:14;;;;;;;;;;;;;;;9.34;67.41;101720.56;5074048;28;19974;-57
2022/05/29 01:13:39;;;;;;;;;;;;;;;9.34;67.76;101717.06;5068441;28;19920;-58
2022/05/29 01:16:12;;;;;;;;;;;;;;;9.35;67.58;101716.94;5071137;28;20014;-58
2022/05/29 01:18:52;;;;;;;;;;;;;;;9.37;67.96;101716.81;5068952;28;20003;-57
2022/05/29 01:21:17;;;;;;;;;;;;;;;9.36;67.66;101715.13;5073831;28;20015;-57
2022/05/29 01:24:00;;;;;;;;;;;;;;;9.33;68.17;101713.56;5078811;28;20008;-58
2022/05/29 01:26:37;;;;;;;;;;;;;;;9.31;68.22;101712.06;5072105;28;19978;-57
2022/05/29 01:29:07;;;;;;;;;;;;;;;9.27;68.10;101712.31;5073881;28;19966;-57
2022/05/29 01:31:33;;;;;;;;;;;;;;;9.25;69.01;101698.38;5074948;28;19928;-57
2022/05/29 01:34:09;;;;;;;;;;;;;;;9.22;69.01;101705.75;5071745;28;19925;-57
2022/05/29 01:36:35;;;;;;;;;;;;;;;9.21;68.85;101701.38;5070544;28;19924;-57
2022/05/29 01:39:06;;;;;;;;;;;;;;;9.17;68.42;101698.16;5073195;28;20272;-58
2022/05/29 01:41:35;;;;;;;;;;;;;;;9.14;68.15;101698.44;5072915;28;19962;-57
2022/05/29 01:44:00;;;;;;;;;;;;;;;9.11;68.81;101696.03;5072264;28;19978;-58
2022/05/29 01:46:33;;;;;;;;;;;;;;;9.13;68.77;101699.41;5071487;28;19925;-58
2022/05/29 01:49:08;;;;;;;;;;;;;;;9.10;68.43;101695.22;5073470;28;20383;-58
2022/05/29 01:51:51;;;;;;;;;;;;;;;9.10;68.66;101689.09;5070971;28;19921;-57
2022/05/29 01:54:26;;;;;;;;;;;;;;;9.09;69.42;101692.69;5077893;28;19920;-57
2022/05/29 01:56:54;;;;;;;;;;;;;;;9.04;69.36;101689.59;5076544;28;19924;-58
2022/05/29 01:59:33;;;;;;;;;;;;;;;9.00;69.02;101687.22;5073017;28;20394;-58
2022/05/29 02:02:02;;;;;;;;;;;;;;;8.99;69.11;101685.53;5068079;28;19920;-57
2022/05/29 02:04:28;;;;;;;;;;;;;;;8.99;69.32;101676.78;5071049;28;19921;-58
2022/05/29 02:09:46;;;;;;;;;;;;;;;8.96;69.10;101683.16;5078813;28;19927;-57
2022/05/29 02:12:14;;;;;;;;;;;;;;;8.93;69.53;101682.59;5073994;28;20002;-58
2022/05/29 02:14:41;;;;;;;;;;;;;;;8.91;69.67;101674.78;5070950;28;19928;-57
2022/05/29 02:17:13;;;;;;;;;;;;;;;8.90;69.51;101675.75;5071085;28;20406;-58
2022/05/29 02:19:50;;;;;;;;;;;;;;;8.88;69.31;101675.03;5076090;28;20642;-58
2022/05/29 02:22:27;;;;;;;;;;;;;;;8.86;69.57;101671.69;5072396;28;20050;-58
2022/05/29 02:24:54;;;;;;;;;;;;;;;8.86;70.20;101675.16;5076323;28;19956;-58
2022/05/29 02:27:19;;;;;;;;;;;;;;;8.85;69.98;101670.00;5070653;28;19968;-58
2022/05/29 02:29:44;;;;;;;;;;;;;;;8.85;69.65;101670.00;5070764;28;20010;-58
2022/05/29 02:32:22;;;;;;;;;;;;;;;8.85;69.89;101664.72;5071330;28;19995;-57
2022/05/29 02:34:54;;;;;;;;;;;;;;;8.81;70.64;101663.28;5056296;28;20054;-58
2022/05/29 02:37:23;;;;;;;;;;;;;;;8.80;70.64;101661.63;5071652;28;19928;-57
2022/05/29 02:40:07;;;;;;;;;;;;;;;8.80;70.83;101661.63;5060511;28;20451;-58
2022/05/29 02:42:38;;;;;;;;;;;;;;;8.72;70.85;101660.47;5066023;28;20371;-58
2022/05/29 02:45:03;;;;;;;;;;;;;;;8.69;70.84;101659.88;5070674;28;20339;-58
2022/05/29 02:47:28;;;;;;;;;;;;;;;8.67;70.93;101657.34;5078705;28;19948;-58
2022/05/29 02:50:14;;;;;;;;;;;;;;;8.64;71.00;101657.63;5071287;28;19925;-58
2022/05/29 02:52:40;;;;;;;;;;;;;;;8.63;70.52;101652.47;5073419;28;20361;-58
2022/05/29 02:55:05;;;;;;;;;;;;;;;8.65;71.57;101654.00;5069145;28;20008;-56
2022/05/29 02:57:30;;;;;;;;;;;;;;;8.59;71.28;101651.88;5070784;28;19947;-58
2022/05/29 03:00:02;;;;;;;;;;;;;;;8.58;71.31;101647.53;5068484;28;19944;-57
2022/05/29 03:02:33;;;;;;;;;;;;;;;8.57;71.83;101640.59;5071129;28;19989;-57
2022/05/29 03:05:19;;;;;;;;;;;;;;;8.58;71.81;101647.53;5066795;28;20306;-57
2022/05/29 03:07:50;;;;;;;;;;;;;;;8.56;71.73;101644.19;5029436;28;19920;-58
2022/05/29 03:10:18;;;;;;;;;;;;;;;8.57;72.63;101646.72;5069549;28;20874;-58
2022/05/29 03:12:44;;;;;;;;;;;;;;;8.57;72.00;101645.88;5081153;28;19920;-57
2022/05/29 03:15:24;;;;;;;;;;;;;;;8.59;72.13;101643.97;5072035;28;19989;-58
2022/05/29 03:17:59;;;;;;;;;;;;;;;8.61;72.07;101636.72;5073243;28;19924;-57
2022/05/29 03:20:40;;;;;;;;;;;;;;;8.65;72.04;101637.31;5070108;28;19969;-57
2022/05/29 03:23:17;;;;;;;;;;;;;;;8.68;71.59;101637.06;5072751;28;20398;-57
2022/05/29 03:25:48;;;;;;;;;;;;;;;8.68;71.54;101631.78;5070848;28;19925;-57
2022/05/29 03:28:22;;;;;;;;;;;;;;;8.72;71.97;101635.81;5066886;28;20007;-57
2022/05/29 03:30:49;;;;;;;;;;;;;;;8.69;72.04;101639.56;5064384;28;20279;-57
2022/05/29 03:33:15;;;;;;;;;;;;;;;8.68;72.53;101637.88;5068069;28;20024;-57
2022/05/29 03:35:43;;;;;;;;;;;;;;;8.67;72.23;101635.34;5058744;28;20730;-57
2022/05/29 03:38:08;;;;;;;;;;;;;;;8.68;72.33;101632.59;5071635;28;19927;-57
2022/05/29 03:40:33;;;;;;;;;;;;;;;8.69;72.03;101628.16;5067720;28;19929;-58
2022/05/29 03:42:59;;;;;;;;;;;;;;;8.73;72.32;101630.41;5073548;28;19928;-58
2022/05/29 03:45:24;;;;;;;;;;;;;;;8.78;72.51;101615.97;5074125;28;19944;-58
2022/05/29 03:47:50;;;;;;;;;;;;;;;8.79;72.03;101618.44;5056152;28;19963;-58
2022/05/29 03:50:16;;;;;;;;;;;;;;;8.81;72.40;101611.25;5046179;28;20011;-58
2022/05/29 03:52:42;;;;;;;;;;;;;;;8.85;72.90;101617.09;5063627;28;19921;-58
2022/05/29 03:55:08;;;;;;;;;;;;;;;8.87;72.73;101615.16;5053708;28;19920;-57
2022/05/29 03:57:33;;;;;;;;;;;;;;;8.88;72.33;101616.81;5065870;28;19982;-58
2022/05/29 03:59:58;;;;;;;;;;;;;;;8.84;72.63;101599.56;5066869;28;20355;-57
2022/05/29 04:02:23;;;;;;;;;;;;;;;8.85;72.70;101603.88;5066810;28;20315;-57
2022/05/29 04:04:49;;;;;;;;;;;;;;;8.88;72.38;101606.25;5067803;28;20294;-58
2022/05/29 04:07:14;;;;;;;;;;;;;;;8.86;72.85;101610.84;5051287;28;20260;-58
2022/05/29 04:12:23;;;;;;;;;;;;;;;8.90;72.51;101609.63;5067318;28;20003;-58
2022/05/29 04:14:48;;;;;;;;;;;;;;;8.93;72.64;101606.69;5069756;28;20007;-58
2022/05/29 04:17:15;;;;;;;;;;;;;;;8.94;72.76;101611.00;5072512;28;19927;-57
2022/05/29 04:19:40;;;;;;;;;;;;;;;8.93;73.07;101609.34;5070984;28;19978;-58
2022/05/29 04:22:06;;;;;;;;;;;;;;;8.95;72.54;101606.56;5051824;28;19921;-59
2022/05/29 04:24:31;;;;;;;;;;;;;;;8.95;72.78;101603.94;5069752;28;19921;-58
2022/05/29 04:26:56;;;;;;;;;;;;;;;8.95;72.57;101602.13;5065921;28;19971;-56
2022/05/29 04:29:22;;;;;;;;;;;;;;;8.95;72.77;101599.47;5062784;28;20364;-58
2022/05/29 04:34:31;;;;;;;;;;;;;;;8.98;73.71;101601.03;5072692;28;19928;-57
2022/05/29 04:36:56;;;;;;;;;;;;;;;8.99;73.70;101603.53;5066694;28;20355;-60
2022/05/29 04:39:22;;;;;;;;;;;;;;;8.95;73.35;101606.56;5072719;28;19921;-57
2022/05/29 04:41:47;;;;;;;;;;;;;;;8.95;73.77;101618.00;5070416;28;19934;-56
2022/05/29 04:44:12;;;;;;;;;;;;;;;8.95;74.17;101615.34;5066275;28;19921;-56
2022/05/29 04:46:38;;;;;;;;;;;;;;;8.94;74.46;101618.94;5066950;28;19928;-56
2022/05/29 04:49:03;;;;;;;;;;;;;;;8.94;74.82;101616.31;5068004;28;19920;-56
2022/05/29 04:51:28;;;;;;;;;;;;;;;8.94;75.00;101615.47;5064969;28;20497;-57
2022/05/29 04:53:54;;;;;;;;;;;;;;;8.87;76.26;101618.66;5065503;28;19920;-57
2022/05/29 04:56:19;;;;;;;;;;;;;;;8.84;76.27;101615.44;5068445;28;19929;-57
2022/05/29 04:58:44;;;;;;;;;;;;;;;8.80;76.63;101608.72;5068889;28;20260;-57
2022/05/29 05:01:10;;;;;;;;;;;;;;;8.73;76.32;101606.59;5067951;28;20061;-57
2022/05/29 05:03:35;;;;;;;;;;;;;;;8.75;76.53;101612.59;5071178;28;20047;-57
2022/05/29 05:06:00;;;;;;;;;;;;;;;8.74;76.21;101600.34;5072205;28;19920;-57
2022/05/29 05:08:25;;;;;;;;;;;;;;;8.75;76.35;101602.00;5070234;28;19924;-56
2022/05/29 05:10:51;;;;;;;;;;;;;;;8.79;76.07;101601.75;5069616;28;20362;-57
2022/05/29 05:13:16;;;;;;;;;;;;;;;8.82;76.44;101590.91;5065486;28;19994;-56
2022/05/29 05:15:42;;;;;;;;;;;;;;;8.85;76.43;101595.94;5064225;28;19924;-56
2022/05/29 05:18:07;;;;;;;;;;;;;;;8.89;76.01;101600.00;5068591;28;19958;-57
2022/05/29 05:20:33;;;;;;;;;;;;;;;8.92;76.55;101597.09;5064448;28;20355;-57
2022/05/29 05:22:58;;;;;;;;;;;;;;;8.91;76.60;101590.13;5071094;28;20023;-56
2022/05/29 05:25:23;;;;;;;;;;;;;;;8.93;76.63;101596.13;5065124;28;19932;-57
2022/05/29 05:27:48;;;;;;;;;;;;;;;8.94;76.76;101591.69;5066245;28;20520;-56
2022/05/29 05:30:14;;;;;;;;;;;;;;;8.94;76.82;101587.19;5068914;28;19917;-58
2022/05/29 05:32:39;;;;;;;;;;;;;;;8.97;77.10;101589.59;5068615;28;19921;-57
2022/05/29 05:35:07;;;;;;;;;;;;;;;8.96;76.71;101587.94;5065560;28;20390;-56
2022/05/29 05:37:34;;;;;;;;;;;;;;;8.99;77.13;101592.94;5069853;28;19970;-57
2022/05/29 05:39:59;;;;;;;;;;;;;;;9.00;77.20;101597.28;5072549;28;19950;-58
2022/05/29 05:42:25;;;;;;;;;;;;;;;9.02;76.96;101597.97;5069383;28;20357;-57
2022/05/29 05:44:50;;;;;;;;;;;;;;;9.05;78.04;101591.59;5063034;28;20375;-56
2022/05/29 05:47:19;;;;;;;;;;;;;;;9.07;76.95;101591.47;5065713;28;19951;-56
2022/05/29 05:49:44;;;;;;;;;;;;;;;9.06;77.09;101584.47;5071408;28;19971;-57
2022/05/29 05:52:09;;;;;;;;;;;;;;;9.09;77.37;101592.16;5069438;28;19967;-57
2022/05/29 05:54:34;;;;;;;;;;;;;;;9.12;77.99;101589.22;5069952;28;19966;-56
2022/05/29 05:56:59;;;;;;;;;;;;;;;9.16;77.53;101582.72;5064853;28;19925;-57
2022/05/29 05:59:25;;;;;;;;;;;;;;;9.21;78.03;101590.25;5071232;28;19921;-57
2022/05/29 06:01:50;;;;;;;;;;;;;;;9.23;77.73;101583.84;5070106;28;19929;-57
2022/05/29 06:04:15;;;;;;;;;;;;;;;9.25;77.58;101589.84;5068536;28;19963;-57
2022/05/29 06:06:40;;;;;;;;;;;;;;;9.31;77.63;101579.72;5063955;28;19928;-56
2022/05/29 06:09:06;;;;;;;;;;;;;;;9.32;78.46;101581.38;5067441;28;19920;-59
2022/05/29 06:11:33;;;;;;;;;;;;;;;9.37;78.24;101584.47;5063123;28;19925;-57
2022/05/29 06:13:58;;;;;;;;;;;;;;;9.35;78.74;101583.75;5065576;28;19928;-57
2022/05/29 06:16:23;;;;;;;;;;;;;;;9.37;78.46;101584.47;5062846;28;19921;-56
2022/05/29 06:18:49;;;;;;;;;;;;;;;9.44;78.07;101585.59;5068569;28;19924;-57
2022/05/29 06:21:14;;;;;;;;;;;;;;;9.52;78.89;101587.56;5066122;28;20359;-57
2022/05/29 06:23:40;;;;;;;;;;;;;;;9.50;78.20;101585.03;5064963;28;20000;-57
2022/05/29 06:26:06;;;;;;;;;;;;;;;9.54;78.57;101585.63;5070140;28;20011;-56
2022/05/29 06:28:32;;;;;;;;;;;;;;;9.58;79.13;101586.16;5059975;28;19917;-56
2022/05/29 06:30:57;;;;;;;;;;;;;;;9.62;79.35;101582.28;5067834;28;19927;-59
2022/05/29 06:33:22;;;;;;;;;;;;;;;9.69;79.46;101578.09;5065141;28;19921;-58
2022/05/29 06:35:48;;;;;;;;;;;;;;;9.74;79.50;101583.84;5067183;28;19920;-58
2022/05/29 06:38:13;;;;;;;;;;;;;;;9.75;78.31;101590.81;5068420;28;19927;-58
2022/05/29 06:40:45;;;;;;;;;;;;;;;9.80;79.06;101579.78;5065819;28;19963;-58
2022/05/29 06:43:11;;;;;;;;;;;;;;;9.89;79.40;101588.72;5066190;28;19956;-58
2022/05/29 06:45:36;;;;;;;;;;;;;;;9.95;79.36;101588.16;5061206;28;20007;-58
2022/05/29 06:48:02;;;;;;;;;;;;;;;10.01;79.69;101587.59;5064798;28;20036;-58
2022/05/29 06:50:27;;;;;;;;;;;;;;;10.06;79.21;101585.38;5065876;28;20398;-57
2022/05/29 06:52:53;;;;;;;;;;;;;;;10.08;79.15;101588.72;5065649;28;19921;-57
2022/05/29 06:55:21;;;;;;;;;;;;;;;10.07;79.41;101592.34;5064256;28;20930;-57
2022/05/29 06:57:46;;;;;;;;;;;;;;;10.11;79.00;101587.59;5061890;28;19916;-58
2022/05/29 07:08:29;;;;;;;;;;;;;;;10.31;80.47;101582.31;5067481;28;20036;-57
2022/05/29 07:11:03;;;;;;;;;;;;;;;10.35;80.08;101578.38;5066046;28;20421;-57
2022/05/29 07:13:29;;;;;;;;;;;;;;;10.46;80.80;101580.09;5065228;28;19927;-58
2022/05/29 07:15:54;;;;;;;;;;;;;;;10.44;79.95;101579.38;5063135;28;19921;-58
2022/05/29 07:18:19;;;;;;;;;;;;;;;10.58;80.65;101578.94;5066455;28;19982;-59
2022/05/29 07:20:44;;;;;;;;;;;;;;;10.56;79.80;101586.19;5070647;28;19920;-57
2022/05/29 07:23:10;;;;;;;;;;;;;;;10.61;80.46;101581.28;5070588;28;19926;-57
2022/05/29 07:25:35;;;;;;;;;;;;;;;10.72;79.43;101579.47;5077863;28;20459;-57
2022/05/29 07:28:00;;;;;;;;;;;;;;;10.83;79.50;101578.44;5066427;28;19950;-57
2022/05/29 07:30:26;;;;;;;;;;;;;;;10.87;80.17;101572.69;5062863;28;19936;-58
2022/05/29 07:32:51;;;;;;;;;;;;;;;10.96;79.75;101572.81;5072083;28;19927;-58
2022/05/29 07:35:17;;;;;;;;;;;;;;;11.12;80.48;101577.50;5063228;28;19948;-57
2022/05/29 07:37:42;;;;;;;;;;;;;;;11.12;80.03;101575.69;5062368;28;19928;-58
2022/05/29 07:40:08;;;;;;;;;;;;;;;11.11;80.36;101574.00;5049184;28;20007;-58
2022/05/29 07:45:17;;;;;;;;;;;;;;;11.12;79.90;101574.84;5068130;28;20078;-57
2022/05/29 07:47:43;;;;;;;;;;;;;;;11.07;79.97;101571.78;5064798;28;20018;-58
2022/05/29 07:50:10;;;;;;;;;;;;;;;11.13;79.40;101561.44;5047217;28;19924;-58
2022/05/29 07:52:36;;;;;;;;;;;;;;;11.20;79.33;101560.84;5064330;28;19920;-58
2022/05/29 07:55:01;;;;;;;;;;;;;;;11.21;78.79;101567.81;5060106;28;19928;-57
2022/05/29 07:57:26;;;;;;;;;;;;;;;11.25;79.22;101566.53;5065670;28;19927;-57
2022/05/29 07:59:51;;;;;;;;;;;;;;;11.30;78.74;101556.31;5062983;28;20490;-57
2022/05/29 08:02:17;;;;;;;;;;;;;;;11.28;78.95;101563.56;5064724;28;20322;-58
2022/05/29 08:04:42;;;;;;;;;;;;;;;11.36;78.31;101560.19;5064917;28;20291;-58
2022/05/29 08:07:08;;;;;;;;;;;;;;;11.46;79.05;101557.47;5065330;28;20036;-57
2022/05/29 08:09:33;;;;;;;;;;;;;;;11.54;78.15;101558.38;5064173;28;19974;-58
2022/05/29 08:11:58;;;;;;;;;;;;;;;11.64;77.93;101550.34;5063707;28;19929;-58
2022/05/29 08:14:23;;;;;;;;;;;;;;;11.75;78.43;101559.09;5061913;28;19921;-58
2022/05/29 08:16:48;;;;;;;;;;;;;;;11.79;77.58;101560.47;5061423;28;20304;-58
2022/05/29 08:19:14;;;;;;;;;;;;;;;11.83;76.63;101553.84;5060389;28;19940;-58
2022/05/29 08:21:40;;;;;;;;;;;;;;;11.94;76.59;101553.59;5062310;28;19924;-58
2022/05/29 08:32:16;;;;;;;;;;;;;;;12.22;76.12;101539.41;5069172;28;19927;-57
2022/05/29 08:34:43;;;;;;;;;;;;;;;12.41;76.19;101534.88;5064399;28;19920;-56
2022/05/29 08:37:09;;;;;;;;;;;;;;;12.64;75.78;101533.34;5062060;28;19974;-56
2022/05/29 08:39:35;;;;;;;;;;;;;;;12.77;74.33;101538.25;5066467;28;19924;-56
2022/05/29 08:42:01;;;;;;;;;;;;;;;12.63;75.10;101537.00;5072148;28;19920;-56
2022/05/29 08:44:40;;;;;;;;;;;;;;;12.47;72.91;101537.75;5071753;28;19927;-56
2022/05/29 08:47:05;;;;;;;;;;;;;;;12.28;72.94;101533.47;5067692;28;19920;-55
2022/05/29 08:49:34;;;;;;;;;;;;;;;12.19;73.80;101539.72;5064205;28;20515;-57
2022/05/29 08:52:17;;;;;;;;;;;;;;;12.18;73.96;101538.88;5065942;28;19932;-57
2022/05/29 08:54:48;;;;;;;;;;;;;;;12.20;74.54;101536.06;5061095;28;19925;-57
2022/05/29 08:57:18;;;;;;;;;;;;;;;12.31;74.15;101533.16;5070713;28;19924;-56
2022/05/29 08:59:49;;;;;;;;;;;;;;;12.51;73.22;101531.13;5063853;28;19920;-56
2022/05/29 09:02:33;;;;;;;;;;;;;;;12.49;73.16;101530.44;5067737;28;19974;-56
2022/05/29 09:05:01;;;;;;;;;;;;;;;12.51;73.38;101533.78;5055790;28;19968;-57
2022/05/29 09:07:31;;;;;;;;;;;;;;;12.37;72.49;101539.66;5049013;28;20656;-56
2022/05/29 09:09:59;;;;;;;;;;;;;;;12.27;73.71;101531.78;5066868;28;19970;-57
2022/05/29 09:12:28;;;;;;;;;;;;;;;12.11;74.22;101522.69;5072256;28;19921;-56
2022/05/29 09:15:21;;;;;;;;;;;;;;;12.12;74.60;101518.22;5071421;28;19951;-56
2022/05/29 09:17:51;;;;;;;;;;;;;;;12.24;74.01;101516.97;5069604;28;19966;-56
2022/05/29 09:20:30;;;;;;;;;;;;;;;12.32;73.50;101524.19;5078438;28;19927;-56
2022/05/29 09:22:56;;;;;;;;;;;;;;;12.57;73.91;101519.00;5061516;28;20279;-57
2022/05/29 09:25:35;;;;;;;;;;;;;;;12.67;73.73;101510.91;5065022;28;19943;-56
2022/05/29 09:28:05;;;;;;;;;;;;;;;12.74;73.61;101511.94;5071665;28;19928;-57
2022/05/29 09:30:31;;;;;;;;;;;;;;;12.73;72.68;101509.47;5070659;28;19920;-57
2022/05/29 09:33:07;;;;;;;;;;;;;;;12.74;72.38;101511.13;5074565;28;19926;-56
2022/05/29 09:35:39;;;;;;;;;;;;;;;12.54;73.02;101505.19;5064516;28;20014;-57
2022/05/29 09:38:24;;;;;;;;;;;;;;;12.41;73.37;101506.47;5070353;28;19925;-56
2022/05/29 09:40:52;;;;;;;;;;;;;;;12.24;72.90;101506.34;5066787;28;19971;-56
2022/05/29 09:43:23;;;;;;;;;;;;;;;12.19;73.11;101503.31;5067489;28;19979;-57
2022/05/29 09:45:48;;;;;;;;;;;;;;;12.30;73.14;101504.06;5057665;28;20401;-56
2022/05/29 09:51:16;;;;;;;;;;;;;;;12.81;72.41;101495.31;5067683;28;19981;-57
2022/05/29 09:53:45;;;;;;;;;;;;;;;13.09;72.42;101495.09;5063998;28;20002;-57
2022/05/29 09:56:11;;;;;;;;;;;;;;;13.32;71.73;101488.16;5067239;28;19924;-56
2022/05/29 09:58:46;;;;;;;;;;;;;;;13.37;71.93;101484.19;5064008;28;20057;-57
2022/05/29 10:01:12;;;;;;;;;;;;;;;13.52;71.95;101479.91;5062381;28;20355;-56
2022/05/29 10:03:46;;;;;;;;;;;;;;;13.45;71.15;101481.53;5067803;28;19927;-57
2022/05/29 10:06:29;;;;;;;;;;;;;;;13.31;71.37;101477.66;5065060;28;20025;-56
2022/05/29 10:09:07;;;;;;;;;;;;;;;13.25;71.52;101476.50;5072368;28;19920;-57
2022/05/29 10:11:32;;;;;;;;;;;;;;;13.23;71.03;101478.47;5068620;28;21627;-57
2022/05/29 10:14:00;;;;;;;;;;;;;;;13.24;70.35;101474.84;5066657;28;19977;-56
2022/05/29 10:16:37;;;;;;;;;;;;;;;13.20;70.89;101478.81;5065261;28;19920;-57
2022/05/29 10:19:03;;;;;;;;;;;;;;;13.46;69.57;101483.22;5066173;28;19954;-57
2022/05/29 10:21:29;;;;;;;;;;;;;;;13.25;69.74;101487.16;5067804;28;19920;-56
2022/05/29 10:24:08;;;;;;;;;;;;;;;12.88;68.68;101493.72;5065136;28;19922;-57
2022/05/29 10:26:36;;;;;;;;;;;;;;;12.27;70.89;101488.41;5048626;28;19920;-56
2022/05/29 10:29:10;;;;;;;;;;;;;;;12.03;71.66;101481.94;5066153;28;20735;-57
2022/05/29 10:31:37;;;;;;;;;;;;;;;11.92;72.18;101483.00;5063688;28;20347;-56
2022/05/29 10:34:10;;;;;;;;;;;;;;;11.85;72.05;101480.13;5064688;28;20020;-57
2022/05/29 10:36:37;;;;;;;;;;;;;;;11.83;72.52;101471.47;5067386;28;19921;-55
2022/05/29 10:39:05;;;;;;;;;;;;;;;11.83;72.05;101468.81;5067774;28;19939;-57
2022/05/29 10:41:33;;;;;;;;;;;;;;;11.82;72.69;101469.78;5069652;28;19947;-56
2022/05/29 10:43:58;;;;;;;;;;;;;;;11.77;74.65;101485.34;5064577;28;20016;-57
2022/05/29 10:46:35;;;;;;;;;;;;;;;11.61;75.12;101486.91;5048032;28;20007;-57
2022/05/29 10:49:23;;;;;;;;;;;;;;;11.44;74.41;101489.41;5070122;28;20301;-56
2022/05/29 10:52:13;;;;;;;;;;;;;;;11.37;76.05;101488.34;5070758;28;19947;-60
2022/05/29 10:54:48;;;;;;;;;;;;;;;11.33;75.98;101481.66;5076521;28;19927;-54
2022/05/29 10:57:40;;;;;;;;;;;;;;;11.27;78.28;101484.91;5079215;28;20370;-55
2022/05/29 11:00:31;;;;;;;;;;;;;;;11.31;76.33;101483.63;5070319;28;20023;-55
2022/05/29 11:03:21;;;;;;;;;;;;;;;11.42;75.81;101480.75;5071900;28;20010;-55
2022/05/29 11:06:04;;;;;;;;;;;;;;;11.57;77.66;101477.56;5076746;28;20303;-53
2022/05/29 11:08:32;;;;;;;;;;;;;;;11.80;75.63;101477.09;5065960;28;20601;-58
2022/05/29 11:11:18;;;;;;;;;;;;;;;12.03;75.01;101476.59;5063700;28;19970;-60
2022/05/29 11:13:49;;;;;;;;;;;;;;;12.33;73.99;101472.66;5071846;28;19920;-57
2022/05/29 11:16:26;;;;;;;;;;;;;;;12.61;73.99;101476.94;5065066;28;19927;-57
2022/05/29 11:19:15;;;;;;;;;;;;;;;12.82;74.65;101475.72;5071856;28;19927;-57
2022/05/29 11:22:04;;;;;;;;;;;;;;;12.87;74.23;101473.38;5074544;28;19928;-59
2022/05/29 11:24:39;;;;;;;;;;;;;;;12.75;74.92;101481.69;5026662;28;19928;-57
2022/05/29 11:27:18;;;;;;;;;;;;;;;12.60;74.62;101477.94;5051027;28;20006;-57
2022/05/29 11:29:46;;;;;;;;;;;;;;;12.57;73.69;101488.91;5061637;28;20337;-57
2022/05/29 11:32:31;;;;;;;;;;;;;;;12.31;74.61;101481.78;5062143;28;19955;-58
2022/05/29 11:35:12;;;;;;;;;;;;;;;12.20;74.45;101478.38;5058384;28;20011;-57
2022/05/29 11:37:37;;;;;;;;;;;;;;;12.06;75.69;101485.13;5061276;28;19970;-58
2022/05/29 11:40:14;;;;;;;;;;;;;;;12.00;74.96;101482.22;5064486;28;19956;-58
2022/05/29 11:42:45;;;;;;;;;;;;;;;11.91;78.02;101484.81;5061456;28;19930;-60
2022/05/29 11:45:16;;;;;;;;;;;;;;;11.91;76.52;101478.66;5059990;28;22013;-57
2022/05/29 11:53:33;;;;;;;;;;;;;;;11.59;78.53;101464.94;5063079;28;19930;-58
2022/05/29 11:56:00;;;;;;;;;;;;;;;11.52;77.57;101463.91;5070238;28;20414;-57
2022/05/29 11:58:39;;;;;;;;;;;;;;;11.79;78.01;101464.81;5060181;28;20001;-58
2022/05/29 12:01:09;;;;;;;;;;;;;;;11.62;79.11;101469.97;5064646;28;19982;-61
2022/05/29 12:03:46;;;;;;;;;;;;;;;11.64;77.91;101465.34;5063020;28;20268;-58
2022/05/29 12:06:14;;;;;;;;;;;;;;;11.71;77.94;101469.03;5062938;28;19927;-58
2022/05/29 12:08:42;;;;;;;;;;;;;;;11.83;77.13;101460.81;5063831;28;20437;-58
2022/05/29 12:11:27;;;;;;;;;;;;;;;11.92;79.10;101461.72;5066823;28;19935;-58
2022/05/29 12:13:56;;;;;;;;;;;;;;;11.94;76.73;101452.63;5071288;28;20134;-57
2022/05/29 12:16:26;;;;;;;;;;;;;;;11.95;77.59;101451.63;5066063;28;20027;-57
2022/05/29 12:18:52;;;;;;;;;;;;;;;11.96;77.47;101450.66;5040713;28;19932;-57
2022/05/29 12:21:23;;;;;;;;;;;;;;;12.03;77.10;101444.72;5066382;28;19916;-57
2022/05/29 12:23:51;;;;;;;;;;;;;;;12.11;76.61;101452.75;5070296;28;19928;-57
2022/05/29 12:26:19;;;;;;;;;;;;;;;12.20;78.04;101446.47;5068411;28;19916;-57
2022/05/29 12:29:07;;;;;;;;;;;;;;;12.29;76.44;101454.53;5075620;28;19920;-57
2022/05/29 12:31:35;;;;;;;;;;;;;;;12.36;75.86;101450.25;5066980;28;19920;-60
2022/05/29 12:34:00;;;;;;;;;;;;;;;12.55;74.61;101443.00;5065574;28;19940;-58
2022/05/29 12:36:33;;;;;;;;;;;;;;;12.46;75.93;101450.13;5069995;28;20278;-60
2022/05/29 12:39:11;;;;;;;;;;;;;;;12.46;77.58;101444.78;5073758;28;19936;-59
2022/05/29 12:41:39;;;;;;;;;;;;;;;12.55;76.46;101443.00;5071301;28;20355;-59
2022/05/29 12:44:18;;;;;;;;;;;;;;;12.56;77.55;101436.69;5074616;28;19917;-60
2022/05/29 12:46:43;;;;;;;;;;;;;;;12.60;76.53;101440.72;5069853;28;20282;-60
2022/05/29 12:49:18;;;;;;;;;;;;;;;12.48;75.73;101438.31;5067435;28;20015;-59
2022/05/29 12:51:55;;;;;;;;;;;;;;;12.50;76.50;101451.47;5068080;28;19931;-60
2022/05/29 12:54:39;;;;;;;;;;;;;;;12.42;74.73;101452.25;5066656;28;19928;-59
2022/05/29 12:57:29;;;;;;;;;;;;;;;12.43;74.95;101456.59;5071849;28;19930;-59
2022/05/29 13:00:03;;;;;;;;;;;;;;;12.43;75.25;101459.25;5064941;28;19920;-60
2022/05/29 13:02:40;;;;;;;;;;;;;;;12.51;75.47;101451.31;5067143;28;19982;-60
2022/05/29 13:05:08;;;;;;;;;;;;;;;12.55;74.74;101448.31;5065970;28;19928;-61
2022/05/29 13:07:52;;;;;;;;;;;;;;;12.46;75.16;101445.63;5069768;28;19921;-59
2022/05/29 13:10:20;;;;;;;;;;;;;;;12.49;74.93;101440.00;5067335;28;19983;-60
2022/05/29 13:12:50;;;;;;;;;;;;;;;12.54;74.79;101441.34;5067311;28;19929;-60
2022/05/29 13:15:23;;;;;;;;;;;;;;;12.70;73.06;101436.09;5068450;28;19925;-59
2022/05/29 13:17:57;;;;;;;;;;;;;;;12.46;73.31;101445.63;5064476;28;19927;-61
2022/05/29 13:20:24;;;;;;;;;;;;;;;12.33;74.72;101446.06;5067047;28;20078;-61
2022/05/29 13:23:06;;;;;;;;;;;;;;;12.29;75.19;101441.22;5071072;28;19934;-59
2022/05/29 13:25:37;;;;;;;;;;;;;;;12.27;75.58;101445.84;5065216;28;19920;-60
2022/05/29 13:28:22;;;;;;;;;;;;;;;12.08;76.02;101448.59;5065642;28;19927;-59
2022/05/29 13:31:20;;;;;;;;;;;;;;;12.03;76.08;101450.03;5065395;28;19927;-58